Time;durP1;ratioP1;P1;durP2;ratioP2;P2;SDS_P1;SDS_P2;PMS_P1;PMS_P2;Temp;Humidity;BMP_temperature;BMP_pressure;BME280_temperature;BME280_humidity;BME280_pressure;Samples;Min_cycle;Max_cycle;Signal;HPM_P1;HPM_P2
2022/05/29 00:02:26;;;;;;;9.40;7.40;;;;;;;13.32;87.68;100758.22;107206;1251;62271;-68
2022/05/29 00:04:55;;;;;;;11.30;7.50;;;;;;;13.29;89.21;100763.88;107351;1250;60548;-65
2022/05/29 00:07:24;;;;;;;11.40;6.80;;;;;;;13.30;89.85;100767.48;107393;1249;72056;-65
2022/05/29 00:09:53;;;;;;;10.80;6.60;;;;;;;13.32;88.60;100771.51;107189;1251;70352;-63
2022/05/29 00:12:23;;;;;;;8.30;5.80;;;;;;;13.31;88.32;100771.08;107354;1250;71476;-66
2022/05/29 00:14:52;;;;;;;7.80;5.40;;;;;;;13.29;88.70;100774.89;107386;1250;71554;-65
2022/05/29 00:17:21;;;;;;;8.30;6.00;;;;;;;13.28;87.49;100776.53;107280;1251;60555;-66
2022/05/29 00:19:51;;;;;;;10.20;6.00;;;;;;;13.30;86.99;100771.83;107348;1248;59118;-65
2022/05/29 00:22:22;;;;;;;9.40;6.10;;;;;;;13.33;86.58;100772.63;107431;1249;71626;-66
2022/05/29 00:24:51;;;;;;;14.30;6.60;;;;;;;13.30;86.78;100770.45;107375;1249;72854;-66
2022/05/29 00:27:20;;;;;;;10.20;6.40;;;;;;;13.29;86.36;100768.58;107312;1250;67374;-65
2022/05/29 00:29:50;;;;;;;9.30;6.20;;;;;;;13.29;86.28;100768.39;107214;1249;72311;-65
2022/05/29 00:32:19;;;;;;;13.60;7.60;;;;;;;13.27;86.22;100772.41;107371;1249;62183;-67
2022/05/29 00:34:47;;;;;;;13.00;7.20;;;;;;;13.22;86.16;100771.02;107340;1249;60932;-68
2022/05/29 00:37:16;;;;;;;9.50;6.50;;;;;;;13.21;85.99;100770.12;107253;1251;70986;-68
2022/05/29 00:39:49;;;;;;;10.50;6.50;;;;;;;13.21;85.49;100781.13;107420;1251;69566;-67
2022/05/29 00:42:24;;;;;;;9.80;6.80;;;;;;;13.19;84.63;100779.13;107359;1250;69353;-66
2022/05/29 00:44:52;;;;;;;10.00;4.80;;;;;;;13.13;82.71;100784.09;107206;1250;73063;-65
2022/05/29 00:47:23;;;;;;;10.70;5.30;;;;;;;13.01;82.03;100787.46;107157;1250;61051;-67
2022/05/29 00:49:52;;;;;;;9.10;4.90;;;;;;;12.95;81.90;100787.91;107219;1250;60219;-65
2022/05/29 00:52:27;;;;;;;11.90;5.30;;;;;;;12.92;81.43;100792.55;107264;1251;73496;-67
2022/05/29 00:55:12;;;;;;;7.80;4.80;;;;;;;12.84;81.15;100793.73;107242;1250;71767;-65
2022/05/29 00:57:53;;;;;;;8.80;4.60;;;;;;;12.77;81.32;100792.37;107289;1249;68289;-67
2022/05/29 01:00:26;;;;;;;8.20;4.40;;;;;;;12.73;80.83;100796.70;107403;1248;73479;-66
2022/05/29 01:02:59;;;;;;;5.80;4.00;;;;;;;12.65;80.60;100798.95;107324;1251;61095;-67
2022/05/29 01:05:32;;;;;;;10.80;4.50;;;;;;;12.62;80.63;100801.98;107465;1250;59590;-66
2022/05/29 01:08:06;;;;;;;8.00;4.60;;;;;;;12.57;80.89;100805.48;107410;1249;73161;-65
2022/05/29 01:10:44;;;;;;;8.60;3.90;;;;;;;12.52;80.68;100801.88;107471;1249;71049;-65
2022/05/29 01:13:32;;;;;;;5.70;3.50;;;;;;;12.45;80.52;100800.09;107480;1249;68721;-64
2022/05/29 01:16:49;;;;;;;9.30;3.50;;;;;;;12.35;80.07;100807.89;107423;1250;73579;-66
2022/05/29 01:19:52;;;;;;;6.10;3.70;;;;;;;12.25;79.35;100805.73;107378;1248;62060;-66
2022/05/29 01:22:50;;;;;;;6.80;3.20;;;;;;;12.18;79.32;100801.38;107481;1249;61069;-65
2022/05/29 01:25:28;;;;;;;6.30;3.00;;;;;;;12.06;79.69;100799.66;107474;1250;73524;-69
2022/05/29 01:29:07;;;;;;;6.80;3.00;;;;;;;12.04;78.70;100797.08;107435;1249;71949;-67
2022/05/29 01:31:50;;;;;;;4.70;3.10;;;;;;;11.99;77.58;100796.40;107100;1249;70114;-67
2022/05/29 01:35:01;;;;;;;5.90;3.20;;;;;;;11.90;78.56;100794.80;107159;1250;72014;-68
2022/05/29 01:37:45;;;;;;;7.20;3.00;;;;;;;11.84;78.44;100801.77;107310;1249;63353;-66
2022/05/29 01:40:31;;;;;;;6.60;2.90;;;;;;;11.80;78.33;100805.53;107120;1251;60374;-66
2022/05/29 01:43:29;;;;;;;7.10;3.20;;;;;;;11.76;78.30;100799.53;107191;1250;72377;-64
2022/05/29 01:46:22;;;;;;;6.60;2.80;;;;;;;11.70;78.66;100794.55;106993;1250;71540;-65
2022/05/29 01:48:53;;;;;;;3.60;2.90;;;;;;;11.66;78.44;100791.35;107217;1248;69497;-65
2022/05/29 01:51:35;;;;;;;4.40;2.50;;;;;;;11.64;78.65;100791.88;107240;1250;73182;-65
2022/05/29 01:54:21;;;;;;;5.80;2.90;;;;;;;11.62;78.23;100792.21;107220;1249;62499;-66
2022/05/29 01:57:01;;;;;;;4.60;2.70;;;;;;;11.57;78.39;100794.30;107274;1251;59211;-66
2022/05/29 01:59:57;;;;;;;6.00;3.10;;;;;;;11.57;78.36;100788.23;107286;1250;73481;-66
2022/05/29 02:02:41;;;;;;;6.10;2.80;;;;;;;11.55;78.41;100787.35;107379;1251;70238;-68
2022/05/29 02:05:18;;;;;;;5.90;2.70;;;;;;;11.53;77.75;100786.41;107408;1251;68670;-68
2022/05/29 02:07:52;;;;;;;4.10;2.50;;;;;;;11.50;77.72;100792.73;107289;1251;74337;-72
2022/05/29 02:10:43;;;;;;;6.10;3.00;;;;;;;11.50;77.65;100797.16;107244;1250;59866;-67
2022/05/29 02:13:35;;;;;;;5.40;2.70;;;;;;;11.49;77.55;100801.72;107272;1251;60537;-66
2022/05/29 02:16:12;;;;;;;5.70;3.00;;;;;;;11.43;77.92;100805.48;107375;1248;74221;-65
2022/05/29 02:18:53;;;;;;;4.30;2.50;;;;;;;11.50;77.99;100812.66;107408;1250;72194;-65
2022/05/29 02:21:52;;;;;;;4.80;3.10;;;;;;;11.45;78.41;100816.13;107477;1249;70969;-66
2022/05/29 02:24:32;;;;;;;5.60;2.80;;;;;;;11.39;78.53;100811.15;107348;1250;74296;-65
2022/05/29 02:27:07;;;;;;;6.30;3.60;;;;;;;11.44;78.84;100814.83;107290;1251;62834;-64
2022/05/29 02:29:36;;;;;;;5.00;3.10;;;;;;;11.44;78.62;100815.88;107386;1248;61128;-66
2022/05/29 02:32:21;;;;;;;9.00;3.00;;;;;;;11.46;78.50;100816.63;107119;1251;72155;-65
2022/05/29 02:35:02;;;;;;;4.80;3.00;;;;;;;11.49;78.11;100819.84;107198;1250;69799;-65
2022/05/29 02:37:55;;;;;;;10.30;3.40;;;;;;;11.51;77.74;100817.27;107189;1249;68803;-65
2022/05/29 02:40:56;;;;;;;5.40;2.90;;;;;;;11.55;77.60;100809.28;107180;1249;71165;-67
2022/05/29 02:43:51;;;;;;;4.60;2.80;;;;;;;11.57;76.74;100808.64;107222;1250;62964;-66
2022/05/29 02:46:44;;;;;;;4.30;2.60;;;;;;;11.54;76.94;100812.23;107210;1250;61674;-65
2022/05/29 02:49:34;;;;;;;4.30;2.20;;;;;;;11.54;77.16;100816.54;107219;1250;71568;-64
2022/05/29 02:52:10;;;;;;;7.10;2.60;;;;;;;11.60;76.71;100819.88;107123;1251;69806;-67
2022/05/29 02:54:39;;;;;;;2.10;1.70;;;;;;;11.55;76.61;100820.61;107247;1250;68626;-68
2022/05/29 02:57:09;;;;;;;6.60;2.80;;;;;;;11.61;76.01;100821.42;107136;1250;73707;-65
2022/05/29 02:59:47;;;;;;;5.70;2.70;;;;;;;11.58;76.35;100817.67;107064;1251;61209;-69
2022/05/29 03:02:30;;;;;;;3.60;2.30;;;;;;;11.58;76.27;100820.73;107244;1249;58998;-65
2022/05/29 03:05:23;;;;;;;4.70;2.50;;;;;;;11.60;76.08;100817.67;107148;1250;72234;-64
2022/05/29 03:08:19;;;;;;;6.00;2.80;;;;;;;11.61;75.85;100823.65;107271;1249;71225;-65
2022/05/29 03:11:16;;;;;;;4.20;2.40;;;;;;;11.61;75.82;100821.59;107097;1250;67884;-66
2022/05/29 03:14:22;;;;;;;3.80;2.50;;;;;;;11.65;75.58;100824.44;107110;1249;73150;-65
2022/05/29 03:17:23;;;;;;;4.20;2.00;;;;;;;11.64;75.30;100829.19;107167;1250;62978;-65
2022/05/29 03:20:27;;;;;;;3.80;2.20;;;;;;;11.70;75.29;100836.26;107151;1248;62331;-64
2022/05/29 03:23:22;;;;;;;3.60;2.40;;;;;;;11.72;75.10;100837.14;107277;1249;73548;-66
2022/05/29 03:25:58;;;;;;;3.00;2.30;;;;;;;11.74;74.82;100829.86;107329;1250;71207;-67
2022/05/29 03:28:50;;;;;;;5.60;2.70;;;;;;;11.75;74.75;100825.57;107228;1249;70524;-67
2022/05/29 03:31:26;;;;;;;4.30;2.40;;;;;;;11.75;74.69;100826.14;107211;1249;72006;-65
2022/05/29 03:33:56;;;;;;;4.80;2.30;;;;;;;11.77;74.79;100823.73;107037;1251;62173;-66
2022/05/29 03:36:25;;;;;;;4.60;2.70;;;;;;;11.78;74.65;100823.11;107125;1250;58852;-65
2022/05/29 03:38:55;;;;;;;3.90;2.60;;;;;;;11.81;74.80;100819.73;107067;1250;72684;-65
2022/05/29 03:41:44;;;;;;;6.60;2.70;;;;;;;11.86;74.76;100823.04;107038;1250;70437;-65
2022/05/29 03:44:17;;;;;;;5.40;3.10;;;;;;;11.93;74.79;100831.58;107178;1250;69276;-64
2022/05/29 03:46:46;;;;;;;6.30;2.70;;;;;;;12.00;74.72;100827.23;107155;1250;73162;-65
2022/05/29 03:49:20;;;;;;;4.30;2.30;;;;;;;12.04;74.51;100824.64;107157;1250;61861;-66
2022/05/29 03:51:49;;;;;;;6.50;2.60;;;;;;;12.06;74.49;100830.61;107212;1250;60715;-66
2022/05/29 03:54:18;;;;;;;4.80;2.50;;;;;;;12.13;74.19;100835.17;107251;1250;71919;-67
2022/05/29 03:56:47;;;;;;;4.20;2.50;;;;;;;12.16;74.16;100826.84;107246;1251;69829;-69
2022/05/29 03:59:16;;;;;;;5.10;2.50;;;;;;;12.26;74.11;100829.08;107117;1252;68267;-66
2022/05/29 04:01:45;;;;;;;5.20;2.10;;;;;;;12.36;73.36;100822.86;107288;1250;73651;-66
2022/05/29 04:04:14;;;;;;;4.60;2.40;;;;;;;12.44;72.77;100828.67;107104;1251;63696;-66
2022/05/29 04:06:42;;;;;;;4.90;2.30;;;;;;;12.64;72.62;100830.44;107136;1251;60797;-65
2022/05/29 04:12:04;;;;;;;6.20;2.60;;;;;;;12.78;71.50;100832.66;107234;1250;71534;-66
2022/05/29 04:14:40;;;;;;;3.30;2.20;;;;;;;12.84;72.13;100840.22;107133;1250;70898;-67
2022/05/29 04:17:14;;;;;;;3.40;2.10;;;;;;;12.84;71.06;100846.88;107050;1250;71569;-67
2022/05/29 04:19:46;;;;;;;4.50;1.70;;;;;;;12.89;70.45;100848.36;107106;1250;60481;-67
2022/05/29 04:22:23;;;;;;;3.70;2.30;;;;;;;12.72;70.14;100846.95;107142;1250;59121;-68
2022/05/29 04:24:52;;;;;;;3.10;1.90;;;;;;;12.76;70.10;100849.58;107107;1250;72763;-67
2022/05/29 04:27:20;;;;;;;3.30;2.10;;;;;;;12.76;70.06;100853.27;107039;1251;73006;-68
2022/05/29 04:29:49;;;;;;;4.60;2.10;;;;;;;12.77;70.16;100856.14;107070;1250;68327;-67
2022/05/29 04:35:07;;;;;;;7.10;2.20;;;;;;;12.87;70.11;100867.76;107003;1250;62034;-69
2022/05/29 04:37:35;;;;;;;2.80;1.70;;;;;;;12.92;69.60;100869.65;107084;1250;59909;-68
2022/05/29 04:40:06;;;;;;;2.80;1.80;;;;;;;12.99;69.88;100881.82;107057;1250;70939;-68
2022/05/29 04:42:35;;;;;;;4.10;1.90;;;;;;;12.98;69.01;100883.11;107079;1250;72257;-68
2022/05/29 04:45:05;;;;;;;3.90;1.90;;;;;;;12.96;69.43;100880.63;107117;1250;68263;-67
2022/05/29 04:47:34;;;;;;;3.90;1.90;;;;;;;12.89;69.59;100884.25;107086;1250;73427;-67
2022/05/29 04:50:04;;;;;;;5.80;1.80;;;;;;;12.89;69.84;100891.02;107093;1250;63294;-69
2022/05/29 04:52:34;;;;;;;3.70;2.50;;;;;;;12.97;69.80;100899.30;107080;1250;60208;-66
2022/05/29 04:55:05;;;;;;;3.60;1.80;;;;;;;13.02;69.71;100902.42;107103;1250;72362;-72
2022/05/29 04:57:36;;;;;;;6.10;2.10;;;;;;;13.01;69.38;100905.26;107305;1250;69661;-67
2022/05/29 05:00:08;;;;;;;4.20;2.00;;;;;;;13.09;68.75;100907.06;107305;1250;67728;-67
2022/05/29 05:02:37;;;;;;;3.70;1.80;;;;;;;13.09;68.58;100905.33;107261;1250;71122;-67
2022/05/29 05:05:08;;;;;;;6.00;2.00;;;;;;;13.10;68.14;100905.59;107120;1250;63614;-69
2022/05/29 05:07:37;;;;;;;3.30;2.00;;;;;;;13.07;68.07;100909.89;107159;1250;61081;-68
2022/05/29 05:10:11;;;;;;;3.90;1.90;;;;;;;13.05;68.31;100910.09;107182;1250;73498;-69
2022/05/29 05:12:40;;;;;;;4.10;1.90;;;;;;;13.02;68.63;100914.80;107144;1251;72119;-69
2022/05/29 05:15:11;;;;;;;3.20;1.60;;;;;;;13.07;68.66;100918.79;107365;1249;70119;-69
2022/05/29 05:17:40;;;;;;;5.30;2.10;;;;;;;13.03;68.57;100921.58;107242;1250;73008;-66
2022/05/29 05:20:10;;;;;;;4.90;2.00;;;;;;;13.01;68.58;100923.11;107235;1250;63134;-68
2022/05/29 05:22:38;;;;;;;4.80;2.00;;;;;;;13.07;68.56;100921.10;107265;1250;60934;-68
2022/05/29 05:25:10;;;;;;;3.10;1.80;;;;;;;13.09;68.28;100923.05;107243;1250;73693;-70
2022/05/29 05:27:39;;;;;;;3.60;2.30;;;;;;;13.09;68.22;100927.94;107118;1251;73493;-68
2022/05/29 05:30:10;;;;;;;3.80;2.20;;;;;;;13.09;68.30;100928.27;107296;1250;70926;-69
2022/05/29 05:32:38;;;;;;;8.30;1.90;;;;;;;13.11;68.39;100928.94;107021;1251;74333;-68
2022/05/29 05:35:08;;;;;;;4.70;2.20;;;;;;;13.15;68.31;100925.19;107071;1250;61470;-68
2022/05/29 05:37:39;;;;;;;4.80;1.80;;;;;;;13.17;68.18;100913.09;107332;1250;58854;-69
2022/05/29 05:40:13;;;;;;;5.20;2.00;;;;;;;13.26;68.14;100921.66;107321;1248;72829;-69
2022/05/29 05:42:42;;;;;;;2.70;1.90;;;;;;;13.39;67.78;100916.07;107220;1250;70182;-70
2022/05/29 05:45:13;;;;;;;3.90;2.30;;;;;;;13.52;67.67;100915.23;107276;1250;67742;-67
2022/05/29 05:47:41;;;;;;;10.30;5.20;;;;;;;13.63;67.42;100914.16;107231;1250;73933;-65
2022/05/29 05:50:11;;;;;;;4.10;2.10;;;;;;;13.81;67.28;100916.65;107047;1250;61915;-66
2022/05/29 05:52:40;;;;;;;6.60;4.00;;;;;;;13.97;66.58;100917.80;106991;1250;61287;-65
2022/05/29 05:55:11;;;;;;;4.00;2.20;;;;;;;14.04;66.05;100918.97;107314;1248;74517;-76
2022/05/29 05:57:41;;;;;;;6.50;4.70;;;;;;;14.09;65.36;100914.00;107197;1250;70725;-70
2022/05/29 06:00:14;;;;;;;3.00;1.80;;;;;;;14.28;65.31;100920.99;107077;1250;69968;-67
2022/05/29 06:02:43;;;;;;;8.50;4.20;;;;;;;14.41;64.44;100927.02;106904;1251;74698;-68
2022/05/29 06:05:15;;;;;;;5.00;2.00;;;;;;;14.50;63.54;100930.52;107178;1249;61918;-66
2022/05/29 06:07:43;;;;;;;3.30;2.00;;;;;;;14.58;62.95;100935.10;107399;1250;60756;-67
2022/05/29 06:10:13;;;;;;;3.70;2.00;;;;;;;14.64;63.10;100936.13;107339;1250;72857;-64
2022/05/29 06:12:41;;;;;;;3.70;2.00;;;;;;;14.69;63.18;100940.44;107297;1250;71444;-65
2022/05/29 06:15:11;;;;;;;3.90;1.70;;;;;;;14.68;62.51;100937.54;107258;1250;68161;-65
2022/05/29 06:17:40;;;;;;;7.50;2.10;;;;;;;14.73;62.54;100937.80;107332;1250;73028;-65
2022/05/29 06:20:10;;;;;;;3.70;1.90;;;;;;;14.76;62.50;100933.34;107303;1250;59011;-64
2022/05/29 06:22:41;;;;;;;3.00;1.60;;;;;;;14.88;62.08;100923.69;107352;1250;59660;-65
2022/05/29 06:25:11;;;;;;;4.20;2.00;;;;;;;14.94;61.95;100925.12;107420;1250;73822;-62
2022/05/29 06:27:46;;;;;;;3.30;1.90;;;;;;;15.00;60.69;100930.59;107414;1249;72657;-60
2022/05/29 06:30:16;;;;;;;3.30;1.80;;;;;;;15.17;59.81;100930.69;107317;1250;68157;-62
2022/05/29 06:32:45;;;;;;;2.20;1.40;;;;;;;15.31;59.91;100931.33;107326;1250;71975;-63
2022/05/29 06:35:16;;;;;;;3.70;1.90;;;;;;;15.62;59.09;100930.30;107451;1250;61687;-60
2022/05/29 06:37:45;;;;;;;2.80;1.80;;;;;;;15.75;58.71;100932.50;107392;1250;60128;-61
2022/05/29 06:40:14;;;;;;;4.50;1.80;;;;;;;15.89;57.96;100931.97;107461;1250;74344;-61
2022/05/29 06:42:43;;;;;;;5.50;1.90;;;;;;;16.11;57.78;100932.74;107365;1249;72111;-60
2022/05/29 06:45:13;;;;;;;3.30;1.70;;;;;;;16.26;57.31;100931.01;107231;1250;69583;-62
2022/05/29 06:47:41;;;;;;;4.10;1.60;;;;;;;16.22;56.07;100925.93;107311;1250;73866;-61
2022/05/29 06:50:11;;;;;;;4.30;1.90;;;;;;;16.27;56.75;100929.17;107394;1250;60238;-61
2022/05/29 06:52:40;;;;;;;3.60;1.60;;;;;;;16.54;56.44;100929.92;107267;1250;60930;-58
2022/05/29 06:55:10;;;;;;;3.60;1.80;;;;;;;16.54;56.09;100929.65;107337;1250;72261;-63
2022/05/29 06:57:44;;;;;;;2.60;1.80;;;;;;;16.82;55.87;100919.98;107298;1250;72849;-60
2022/05/29 07:09:17;;;;;;;3.40;2.20;;;;;;;17.15;54.80;100919.41;107335;1250;60077;-57
2022/05/29 07:11:51;;;;;;;3.10;1.80;;;;;;;17.18;54.15;100920.64;107291;1250;73853;-60
2022/05/29 07:14:21;;;;;;;3.30;1.90;;;;;;;17.03;53.79;100923.05;107390;1250;70084;-64
2022/05/29 07:16:50;;;;;;;3.30;1.50;;;;;;;17.09;54.21;100923.02;107446;1250;67937;-59
2022/05/29 07:19:20;;;;;;;2.90;1.70;;;;;;;17.18;54.50;100925.79;107393;1250;71903;-63
2022/05/29 07:21:49;;;;;;;3.00;1.60;;;;;;;17.26;53.80;100925.89;107411;1250;59198;-64
2022/05/29 07:24:18;;;;;;;3.50;1.70;;;;;;;17.42;53.92;100923.66;107366;1250;60003;-71
2022/05/29 07:26:49;;;;;;;3.60;2.20;;;;;;;17.39;53.70;100926.56;107467;1250;70947;-70
2022/05/29 07:29:18;;;;;;;4.70;2.30;;;;;;;17.51;53.90;100935.41;107315;1250;72162;-74
2022/05/29 07:31:47;;;;;;;5.70;2.90;;;;;;;17.59;53.88;100936.02;107394;1250;70228;-71
2022/05/29 07:34:16;;;;;;;4.40;1.80;;;;;;;17.77;53.52;100938.50;107200;1250;72451;-71
2022/05/29 07:36:45;;;;;;;3.20;1.80;;;;;;;17.82;52.92;100934.88;107108;1250;61356;-71
2022/05/29 07:39:14;;;;;;;3.80;1.70;;;;;;;17.57;53.36;100929.06;107129;1250;59363;-69
2022/05/29 07:44:30;;;;;;;4.80;2.00;;;;;;;17.31;54.01;100912.07;107176;1250;72653;-73
2022/05/29 07:46:59;;;;;;;3.80;2.10;;;;;;;17.48;54.06;100906.67;107173;1251;68771;-72
2022/05/29 07:49:28;;;;;;;3.30;1.90;;;;;;;17.19;54.59;100901.73;107200;1249;73102;-73
2022/05/29 07:51:57;;;;;;;4.50;1.80;;;;;;;17.18;55.11;100900.75;107256;1250;60146;-71
2022/05/29 07:54:26;;;;;;;5.70;2.10;;;;;;;17.05;54.68;100899.79;107220;1249;61620;-71
2022/05/29 07:57:00;;;;;;;6.10;2.00;;;;;;;17.23;54.93;100902.14;107266;1249;73190;-70
2022/05/29 07:59:29;;;;;;;3.90;1.90;;;;;;;17.50;53.96;100900.16;107149;1250;71191;-73
2022/05/29 08:01:58;;;;;;;5.80;2.10;;;;;;;17.20;54.62;100894.83;107218;1250;68618;-72
2022/05/29 08:04:27;;;;;;;3.60;1.90;;;;;;;17.59;53.78;100896.29;107259;1251;71984;-71
2022/05/29 08:06:56;;;;;;;4.50;2.10;;;;;;;17.71;52.99;100896.46;107147;1250;59009;-72
2022/05/29 08:09:25;;;;;;;4.90;2.40;;;;;;;17.59;53.56;100895.49;107221;1250;61204;-69
2022/05/29 08:11:54;;;;;;;3.90;2.00;;;;;;;17.55;53.63;100892.23;107200;1250;73650;-71
2022/05/29 08:14:23;;;;;;;4.90;2.30;;;;;;;17.51;53.84;100885.26;107411;1250;71108;-71
2022/05/29 08:16:52;;;;;;;4.00;2.10;;;;;;;17.56;54.65;100879.35;107467;1249;67941;-72
2022/05/29 08:19:20;;;;;;;4.60;2.10;;;;;;;17.90;53.97;100872.80;107304;1250;73940;-70
2022/05/29 08:21:50;;;;;;;4.90;2.30;;;;;;;18.02;53.94;100877.16;107411;1250;60205;-68
2022/05/29 08:30:47;;;;;;;3.10;2.10;;;;;;;18.51;53.20;100880.95;107358;1250;70992;-75
2022/05/29 08:33:20;;;;;;;3.90;2.40;;;;;;;18.21;53.78;100877.13;107454;1250;70515;-78
2022/05/29 08:36:10;;;;;;;6.00;2.60;;;;;;;18.31;53.93;100881.81;107389;1250;74248;-77
2022/05/29 08:38:46;;;;;;;7.70;3.50;;;;;;;18.48;53.33;100877.89;107263;1250;61209;-76
2022/05/29 08:41:31;;;;;;;5.60;2.50;;;;;;;18.73;52.52;100873.39;107319;1250;59061;-76
2022/05/29 08:44:10;;;;;;;4.80;2.50;;;;;;;19.01;52.18;100873.98;107333;1248;73614;-76
2022/05/29 08:46:51;;;;;;;6.60;2.90;;;;;;;19.16;51.47;100872.04;107506;1250;63311;-78
2022/05/29 08:49:27;;;;;;;6.60;2.70;;;;;;;19.08;51.48;100873.81;107525;1250;61004;-79
2022/05/29 08:52:43;;;;;;;5.80;2.50;;;;;;;19.29;51.17;100873.11;107482;1250;63209;-75
2022/05/29 08:55:24;;;;;;;3.80;2.50;;;;;;;19.50;51.24;100871.61;107513;1250;57875;-78
2022/05/29 08:58:23;;;;;;;5.80;3.20;;;;;;;19.60;51.18;100867.89;107587;1249;60350;-81
2022/05/29 09:01:16;;;;;;;5.90;2.60;;;;;;;19.57;50.45;100865.10;107533;1249;65197;-77
2022/05/29 09:04:13;;;;;;;5.10;2.30;;;;;;;19.61;50.90;100858.73;107425;1250;61203;-77
2022/05/29 09:06:52;;;;;;;4.30;2.50;;;;;;;19.87;50.37;100858.08;107492;1249;60765;-76
2022/05/29 09:09:58;;;;;;;5.60;2.30;;;;;;;20.24;50.72;100851.31;106749;1250;635124;-75
2022/05/29 09:12:37;;;;;;;5.80;2.30;;;;;;;20.45;49.31;100846.05;107472;1250;60347;-77
2022/05/29 09:15:26;;;;;;;5.70;2.50;;;;;;;20.15;49.18;100842.64;107357;1251;61046;-77
2022/05/29 09:18:03;;;;;;;4.20;2.60;;;;;;;19.50;50.63;100830.59;107502;1250;73258;-77
2022/05/29 09:20:50;;;;;;;5.50;2.50;;;;;;;19.60;51.25;100827.05;107456;1249;61214;-76
2022/05/29 09:23:30;;;;;;;5.10;2.50;;;;;;;19.85;51.18;100823.83;107455;1249;59203;-77
2022/05/29 09:26:04;;;;;;;5.80;2.60;;;;;;;20.12;51.03;100827.71;107397;1250;63271;-76
2022/05/29 09:28:39;;;;;;;4.90;3.00;;;;;;;20.36;49.97;100827.73;107450;1250;58956;-77
2022/05/29 09:31:21;;;;;;;7.60;3.50;;;;;;;20.45;49.95;100828.33;107180;1249;59065;-77
2022/05/29 09:33:51;;;;;;;6.20;2.60;;;;;;;20.65;49.16;100831.01;107403;1250;62148;-75
2022/05/29 09:36:32;;;;;;;3.90;2.20;;;;;;;20.86;47.95;100828.09;107427;1250;72449;-76
2022/05/29 09:39:33;;;;;;;5.10;2.80;;;;;;;21.39;47.80;100826.11;107438;1249;60501;-77
2022/05/29 09:42:26;;;;;;;4.40;2.80;;;;;;;21.87;47.01;100825.18;107383;1250;63218;-80
2022/05/29 09:45:25;;;;;;;5.80;3.40;;;;;;;21.77;46.40;100829.60;107272;1251;59500;-78
2022/05/29 09:50:53;;;;;;;4.30;3.00;;;;;;;21.60;47.13;100836.60;107456;1249;73553;-79
2022/05/29 09:53:34;;;;;;;4.70;3.00;;;;;;;21.88;46.65;100838.94;107483;1250;62956;-81
2022/05/29 09:56:09;;;;;;;4.50;3.20;;;;;;;21.92;47.05;100838.03;107488;1250;70518;-80
2022/05/29 09:58:55;;;;;;;5.70;3.10;;;;;;;21.72;46.86;100841.84;107663;1249;64012;-78
2022/05/29 10:01:36;;;;;;;6.20;3.30;;;;;;;22.04;46.91;100841.68;107522;1250;58756;-77
2022/05/29 10:04:11;;;;;;;10.20;3.50;;;;;;;21.95;46.73;100845.72;107727;1248;58859;-75
2022/05/29 10:06:44;;;;;;;6.00;3.20;;;;;;;22.21;46.55;100849.01;107496;1250;62154;-76
2022/05/29 10:09:20;;;;;;;7.30;3.10;;;;;;;22.34;46.08;100849.64;107403;1250;71395;-75
2022/05/29 10:11:56;;;;;;;6.70;3.60;;;;;;;22.25;46.72;100845.59;107385;1249;70484;-76
2022/05/29 10:14:40;;;;;;;6.10;3.20;;;;;;;22.13;47.07;100844.84;107247;1250;72216;-77
2022/05/29 10:17:33;;;;;;;4.50;2.80;;;;;;;21.85;47.58;100849.60;107523;1249;59023;-73
2022/05/29 10:20:33;;;;;;;5.30;2.70;;;;;;;21.87;47.38;100844.89;107530;1251;61033;-73
2022/05/29 10:23:30;;;;;;;6.30;2.80;;;;;;;22.47;46.49;100849.77;107465;1250;74052;-71
2022/05/29 10:26:15;;;;;;;;;;;;;;;22.83;44.83;100849.00;107198;1249;73468;-73
2022/05/29 10:28:44;;;;;;;6.30;3.20;;;;;;;22.82;44.94;100844.27;107510;1249;60649;-74
2022/05/29 10:31:22;;;;;;;3.60;3.00;;;;;;;21.87;47.02;100840.95;107400;1249;63061;-72
2022/05/29 10:34:25;;;;;;;4.90;3.20;;;;;;;21.64;47.83;100835.86;107291;1250;58930;-74
2022/05/29 10:36:56;;;;;;;4.60;2.90;;;;;;;21.77;47.66;100831.89;107463;1250;58612;-74
2022/05/29 10:39:29;;;;;;;5.00;2.70;;;;;;;21.89;46.92;100827.77;107310;1250;62968;-78
2022/05/29 10:42:04;;;;;;;5.20;3.10;;;;;;;22.40;45.18;100825.89;107326;1250;72620;-76
2022/05/29 10:44:46;;;;;;;6.00;3.20;;;;;;;22.42;45.37;100823.34;107330;1250;59754;-77
2022/05/29 10:47:35;;;;;;;4.40;2.60;;;;;;;22.21;46.53;100821.86;107436;1251;63272;-73
2022/05/29 10:50:27;;;;;;;3.80;2.60;;;;;;;22.34;46.16;100821.17;107525;1249;58827;-73
2022/05/29 10:54:00;;;;;;;7.70;2.50;;;;;;;22.80;45.53;100820.80;107576;1250;61216;-77
2022/05/29 10:57:18;;;;;;;4.00;2.60;;;;;;;22.99;44.61;100817.34;107297;1253;64045;-72
2022/05/29 11:00:06;;;;;;;4.80;2.40;;;;;;;22.72;44.70;100824.42;107395;1249;61574;-72
2022/05/29 11:03:20;;;;;;;3.80;2.20;;;;;;;23.04;43.60;100835.92;107560;1250;60014;-74
2022/05/29 11:06:26;;;;;;;4.50;2.30;;;;;;;22.88;42.83;100837.82;107160;1250;73878;-73
2022/05/29 11:10:03;;;;;;;4.90;2.30;;;;;;;23.93;41.52;100834.91;107293;1250;59750;-74
2022/05/29 11:13:32;;;;;;;3.60;2.30;;;;;;;23.82;41.69;100831.67;106999;1251;58944;-73
2022/05/29 11:16:57;;;;;;;5.30;2.10;;;;;;;23.45;41.96;100826.88;107581;1249;73934;-74
2022/05/29 11:19:38;;;;;;;5.00;2.90;;;;;;;23.69;42.09;100819.21;107338;1250;72962;-73
2022/05/29 11:22:23;;;;;;;2.80;2.20;;;;;;;24.36;41.47;100812.09;107492;1249;70127;-71
2022/05/29 11:25:20;;;;;;;5.40;2.30;;;;;;;24.75;40.39;100809.56;107374;1250;62859;-71
2022/05/29 11:28:21;;;;;;;5.50;2.40;;;;;;;24.59;39.84;100806.86;107409;1250;60599;-75
2022/05/29 11:31:42;;;;;;;3.80;2.10;;;;;;;25.21;38.37;100808.73;107532;1250;61208;-72
2022/05/29 11:34:48;;;;;;;3.80;2.50;;;;;;;24.61;39.44;100803.71;107484;1250;63442;-71
2022/05/29 11:37:54;;;;;;;4.30;2.30;;;;;;;24.83;39.76;100795.44;107346;1249;61624;-72
2022/05/29 11:40:29;;;;;;;3.20;2.10;;;;;;;24.89;39.23;100788.70;107346;1250;70690;-77
2022/05/29 11:43:09;;;;;;;3.40;2.00;;;;;;;25.73;37.72;100787.59;107521;1250;62535;-72
2022/05/29 11:51:56;;;;;;;3.80;2.00;;;;;;;24.62;39.11;100778.98;107240;1250;63887;-68
2022/05/29 11:54:39;;;;;;;3.20;1.90;;;;;;;23.77;40.42;100783.91;107324;1250;70658;-68
2022/05/29 11:57:15;;;;;;;3.10;1.80;;;;;;;24.51;38.95;100781.27;107295;1250;59641;-69
2022/05/29 12:00:25;;;;;;;4.60;2.00;;;;;;;25.18;37.78;100781.27;107215;1250;62500;-68
2022/05/29 12:03:21;;;;;;;2.90;1.90;;;;;;;26.08;36.45;100779.42;107378;1250;59034;-67
2022/05/29 12:06:13;;;;;;;3.00;1.90;;;;;;;25.51;36.70;100777.80;107326;1250;59011;-70
2022/05/29 12:09:06;;;;;;;4.80;2.10;;;;;;;25.74;36.17;100780.39;107317;1250;62190;-70
2022/05/29 12:12:05;;;;;;;3.60;2.10;;;;;;;24.66;38.26;100778.03;107448;1250;60904;-68
2022/05/29 12:14:44;;;;;;;3.90;2.00;;;;;;;23.82;39.76;100778.65;107105;1250;59264;-69
2022/05/29 12:17:21;;;;;;;3.20;2.10;;;;;;;23.76;40.28;100776.46;109670;1249;73141;-70
2022/05/29 12:19:59;;;;;;;3.30;2.10;;;;;;;23.22;41.04;100784.16;107304;1250;60824;-69
2022/05/29 12:22:49;;;;;;;3.10;1.90;;;;;;;23.04;41.50;100787.97;107461;1249;59080;-71
2022/05/29 12:25:45;;;;;;;5.30;2.10;;;;;;;22.68;41.84;100793.89;107393;1250;72867;-70
2022/05/29 12:28:41;;;;;;;3.20;2.00;;;;;;;22.76;41.78;100788.04;107366;1250;71752;-71
2022/05/29 12:31:21;;;;;;;3.10;1.90;;;;;;;22.81;41.95;100790.50;107479;1250;70236;-70
2022/05/29 12:33:50;;;;;;;5.40;2.10;;;;;;;22.77;42.98;100788.30;107640;1250;63001;-70
2022/05/29 12:37:03;;;;;;;5.90;2.40;;;;;;;23.20;42.40;100787.73;107165;1250;58979;-65
2022/05/29 12:39:38;;;;;;;;;;;;;;;23.74;41.04;100789.87;107372;1250;59148;-71
2022/05/29 12:42:34;;;;;;;3.90;3.00;;;;;;;22.72;43.41;100788.37;107546;1249;72858;-71
2022/05/29 12:45:27;;;;;;;4.70;2.00;;;;;;;22.81;42.86;100788.45;107280;1249;62169;-69
2022/05/29 12:48:33;;;;;;;7.00;2.60;;;;;;;23.29;41.92;100785.05;107298;1250;59264;-67